• Join FlightAware (Why Join?)
  • Login
  • US Flag 
12:11PM EDT


 

Airport Tracker/Info


-or-


 

Live Flight TrackerFlight Track Log ✈ CHQ5077 ✈ 16-May-2013 ✈ KORD - KCID

Flight Track Log - Related Links

Times and Time Zones

All times are in EDT time to prevent confusion due to time zone crossing. See the CHQ5077 flight status page for this flight to view local times or setup timezone preferences in your user account.

Time Position Orientation Groundspeed Altitude Reporting Facility
EDT Latitude Longitude Course Direction KTS MPH feet Rate Location/Type
07:49AM 42.0000 -87.9833 270° West 206 237 2,800  Level Chicago TRACON
07:51AM 41.9667 -88.3012 270° West  Level FlightAware Approximate
07:51AM 41.9850 -88.1506 263° West 248 285 8,600  Level Chicago Center
07:52AM 41.9667 -88.4015 270° West  Level FlightAware Approximate
07:52AM 41.9803 -88.2389 266° West 242 278 11,800  Level Chicago Center
07:53AM 41.9667 -88.5018 270° West  Level FlightAware Approximate
07:53AM 41.9783 -88.3333 268° West 253 291 13,700  Level Chicago Center
07:54AM 41.9667 -88.6130 270° West  Level FlightAware Approximate
07:54AM 41.9767 -88.4678 269° West 298 343 15,500  Level Chicago Center
07:55AM 41.9747 -88.5872 269° West 318 366 16,100 240 Climbing Chicago Center
07:56AM 41.9725 -88.7017 269° West 313 360 16,100  Level Chicago Center
07:57AM 41.9708 -88.8075 269° West 291 335 16,100  Level Chicago Center
07:58AM 41.9692 -88.9117 269° West 284 327 16,100  Level Chicago Center
07:59AM 41.9672 -89.0372 269° West 282 325 16,100  Level Chicago Center
08:00AM 41.9647 -89.1417 268° West 282 325 16,100  Level Chicago Center
08:01AM 41.9631 -89.2428 269° West 277 319 16,100  Level Chicago Center
08:02AM 41.9608 -89.3464 268° West 277 319 16,100  Level Chicago Center
08:03AM 41.9586 -89.4489 268° West 278 320 16,100  Level Chicago Center
08:04AM 41.9558 -89.5536 268° West 280 322 16,100  Level Chicago Center
08:05AM 41.9525 -89.6778 268° West 281 323 16,100  Level Chicago Center
08:06AM 41.9494 -89.7814 268° West 279 321 16,100  Level Chicago Center
08:07AM 41.9475 -89.8842 269° West 279 321 16,100  Level Chicago Center
08:08AM 41.9456 -89.9900 269° West 286 329 16,100  Level Chicago Center
08:09AM 41.9425 -90.0922 268° West 280 322 16,100  Level Chicago Center
08:10AM 41.9389 -90.1958 267° West 279 321 16,100  Level Chicago Center
08:11AM 41.9358 -90.3194 268° West 278 320 16,100 -300 Level Chicago Center
08:12AM 41.9322 -90.4206 267° West 278 320 15,500 -780 Descending Chicago Center
08:13AM 41.9308 -90.5247 269° West 280 322 14,500 -1,020 Descending Chicago Center
08:14AM 41.9267 -90.6314 267° West 287 330 13,500 -1,020 Descending Chicago Center
08:15AM 41.9214 -90.7414 266° West 294 338 12,500 -1,020 Descending Chicago Center
08:16AM 41.9183 -90.8481 268° West 289 333 11,500 -780 Descending Chicago Center
08:17AM 41.9131 -90.9739 267° West 286 329 11,000 -780 Descending Chicago Center
08:18AM 41.9033 -91.0656 262° West 262 302 10,000 -1,020 Descending Chicago Center
08:19AM 41.8908 -91.1625 260° West 262 302 8,900 -1,080 Descending Chicago Center
08:20AM 41.8797 -91.2642 262° West 270 311 7,800 -1,080 Descending Chicago Center
08:21AM 41.8786 -91.3617 269° West 267 307 6,700 -1,500 Descending Chicago Center
08:22AM 41.8817 -91.4719 272° West 252 290 4,700 -1,980 Descending Chicago Center